Time;durP1;ratioP1;P1;durP2;ratioP2;P2;SDS_P1;SDS_P2;PMS_P1;PMS_P2;Temp;Humidity;BMP_temperature;BMP_pressure;BME280_temperature;BME280_humidity;BME280_pressure;Samples;Min_cycle;Max_cycle;Signal;HPM_P1;HPM_P2
2023/06/08 00:00:53;;;;;;;10.88;5.93;;;15.70;99.90;;;15.67;100.00;101077.75;5013989;28;20045;-78
2023/06/08 00:03:18;;;;;;;9.70;5.30;;;15.70;99.90;;;15.62;100.00;101069.34;5015087;28;20057;-78
2023/06/08 00:05:49;;;;;;;14.43;5.63;;;15.70;99.90;;;15.60;100.00;101082.50;5019060;28;20029;-78
2023/06/08 00:08:16;;;;;;;11.02;5.63;;;15.70;99.90;;;15.58;100.00;101083.84;5008402;28;20141;-78
2023/06/08 00:10:45;;;;;;;9.05;5.90;;;15.60;99.90;;;15.51;100.00;101086.69;5013488;28;20041;-77
2023/06/08 00:13:13;;;;;;;10.93;6.50;;;15.60;99.90;;;15.46;100.00;101095.66;4998046;28;20080;-78
2023/06/08 00:15:39;;;;;;;8.52;5.40;;;15.60;99.90;;;15.42;100.00;101083.47;5007491;28;20046;-78
2023/06/08 00:18:09;;;;;;;9.43;5.78;;;15.50;99.90;;;15.41;100.00;101078.22;5003119;28;20034;-78
2023/06/08 00:20:35;;;;;;;11.50;5.85;;;15.50;99.90;;;15.45;100.00;101076.66;5015013;28;20041;-77
2023/06/08 00:23:04;;;;;;;14.38;6.13;;;15.50;99.90;;;15.43;100.00;101079.66;5010044;28;20039;-78
2023/06/08 00:25:31;;;;;;;12.20;6.20;;;15.50;99.90;;;15.51;100.00;101078.47;5008000;28;20030;-76
2023/06/08 00:27:56;;;;;;;14.43;6.35;;;15.60;99.90;;;15.59;100.00;101086.34;4999941;28;20037;-76
2023/06/08 00:30:22;;;;;;;11.50;6.10;;;15.60;99.90;;;15.61;100.00;101086.94;5012780;28;20041;-78
2023/06/08 00:32:48;;;;;;;12.80;6.03;;;15.60;99.90;;;15.60;100.00;101085.25;5003531;28;20042;-77
2023/06/08 00:35:14;;;;;;;9.40;5.50;;;15.70;99.90;;;15.57;100.00;101072.00;5015226;28;20034;-77
2023/06/08 00:37:40;;;;;;;10.43;5.88;;;15.70;99.90;;;15.56;100.00;101080.50;5018237;28;20030;-78
2023/06/08 00:40:07;;;;;;;13.75;6.10;;;15.60;99.90;;;15.57;100.00;101084.91;5016941;28;20553;-77
2023/06/08 00:42:34;;;;;;;12.77;5.72;;;15.60;99.90;;;15.53;100.00;101081.81;5018342;28;20359;-78
2023/06/08 00:45:00;;;;;;;11.25;5.95;;;15.60;99.90;;;15.48;100.00;101073.44;5009786;28;20062;-77
2023/06/08 00:47:26;;;;;;;10.27;5.60;;;15.60;99.90;;;15.46;100.00;101070.09;5007299;28;20050;-77
2023/06/08 00:49:52;;;;;;;9.73;5.20;;;15.50;99.90;;;15.38;100.00;101063.03;5027274;28;20396;-78
2023/06/08 00:52:20;;;;;;;10.57;5.60;;;15.40;99.90;;;15.41;100.00;101069.97;5013562;28;20072;-78
2023/06/08 00:54:50;;;;;;;10.73;5.80;;;15.50;99.90;;;15.45;100.00;101072.00;5017330;28;20038;-78
2023/06/08 00:57:18;;;;;;;10.98;5.35;;;15.60;99.90;;;15.52;100.00;101058.13;5005161;28;20042;-78
2023/06/08 00:59:49;;;;;;;13.40;5.68;;;15.70;99.90;;;15.55;100.00;101065.91;5011591;28;20712;-77
2023/06/08 01:02:16;;;;;;;10.02;5.55;;;15.70;99.90;;;15.51;100.00;101061.97;5013026;28;20156;-77
2023/06/08 01:04:42;;;;;;;12.82;5.45;;;15.70;99.90;;;15.51;100.00;101067.47;5001939;28;20487;-77
2023/06/08 01:07:48;;;;;;;10.57;5.50;;;15.70;99.90;;;15.59;100.00;101061.59;5001119;28;20093;-77
2023/06/08 01:10:28;;;;;;;11.30;5.40;;;15.80;99.90;;;15.62;100.00;101052.84;4995435;28;20533;-79
2023/06/08 01:13:17;;;;;;;10.23;5.47;;;16.00;99.90;;;15.65;100.00;101043.28;4995351;28;20034;-79
2023/06/08 01:15:50;;;;;;;9.85;5.53;;;16.10;99.90;;;15.64;100.00;101045.19;4994682;28;20042;-79
2023/06/08 01:18:22;;;;;;;12.90;5.70;;;16.10;99.90;;;15.60;100.00;101041.25;5006238;28;20038;-79
2023/06/08 01:21:24;;;;;;;10.52;5.75;;;16.10;99.90;;;15.65;100.00;101043.28;5000979;28;20058;-80
2023/06/08 01:24:15;;;;;;;12.80;5.45;;;16.10;99.90;;;15.57;100.00;101039.00;5010702;28;20033;-79
2023/06/08 01:26:49;;;;;;;14.00;5.53;;;16.10;99.90;;;15.60;100.00;101044.00;5000028;28;20057;-79
2023/06/08 01:29:17;;;;;;;12.32;5.72;;;16.10;99.90;;;15.61;100.00;101040.19;4997993;28;20043;-79
2023/06/08 01:31:44;;;;;;;15.45;5.72;;;16.10;99.90;;;15.59;100.00;101041.50;4995429;28;20042;-79
2023/06/08 01:34:13;;;;;;;11.68;5.70;;;16.10;99.90;;;15.56;100.00;101042.00;5008713;28;20042;-79
2023/06/08 01:37:23;;;;;;;14.55;5.90;;;16.00;99.90;;;15.53;100.00;101037.81;4997715;28;20037;-79
2023/06/08 01:40:05;;;;;;;9.67;5.27;;;16.00;99.90;;;15.51;100.00;101037.22;5018420;28;20120;-79
2023/06/08 01:42:34;;;;;;;10.20;6.03;;;16.00;99.90;;;15.53;100.00;101043.31;5001800;28;20470;-78
2023/06/08 01:45:23;;;;;;;11.02;5.53;;;15.90;99.90;;;15.51;100.00;101035.28;4999780;28;20081;-78
2023/06/08 01:48:05;;;;;;;10.93;5.93;;;15.90;99.90;;;15.55;100.00;101032.91;5000471;28;20054;-78
2023/06/08 01:50:34;;;;;;;12.40;5.63;;;15.90;99.90;;;15.56;100.00;101029.06;5001699;28;20042;-78
2023/06/08 01:53:01;;;;;;;11.15;5.78;;;15.90;99.90;;;15.60;99.98;101038.50;5011686;28;20513;-78
2023/06/08 01:55:29;;;;;;;12.13;5.20;;;15.90;99.90;;;15.59;100.00;101036.84;4998945;28;20467;-78
2023/06/08 01:57:55;;;;;;;11.88;5.60;;;16.00;99.90;;;15.62;100.00;101038.28;5011604;28;20402;-79
2023/06/08 02:00:22;;;;;;;14.23;5.78;;;16.00;99.90;;;15.59;100.00;101030.50;5011420;28;20037;-79
2023/06/08 02:02:47;;;;;;;14.25;5.85;;;16.00;99.90;;;15.59;100.00;101036.00;5001268;28;20197;-78
2023/06/08 02:05:15;;;;;;;18.73;6.40;;;15.90;99.90;;;15.48;100.00;101033.03;5005541;28;20530;-79
2023/06/08 02:07:42;;;;;;;11.23;6.22;;;15.90;99.90;;;15.45;100.00;101036.25;5007674;28;20116;-79
2023/06/08 02:10:12;;;;;;;12.02;5.82;;;15.90;99.90;;;15.26;100.00;101031.97;5005521;28;20479;-80
2023/06/08 02:12:38;;;;;;;11.77;6.90;;;15.80;99.90;;;15.28;100.00;101038.06;4992857;28;20502;-79
2023/06/08 02:15:05;;;;;;;11.88;6.47;;;15.80;99.90;;;15.31;100.00;101032.09;4996747;28;20070;-79
2023/06/08 02:17:33;;;;;;;13.82;6.10;;;15.70;99.90;;;15.25;100.00;101020.13;4996899;28;20045;-79
2023/06/08 02:20:05;;;;;;;17.60;6.40;;;15.70;99.90;;;15.18;100.00;101025.75;5003213;28;20042;-78
2023/06/08 02:22:31;;;;;;;15.20;6.72;;;15.70;99.90;;;15.18;100.00;101024.91;5012286;28;20037;-79
2023/06/08 02:24:56;;;;;;;15.18;6.68;;;15.70;99.90;;;15.11;100.00;101033.28;5004982;28;20041;-79
2023/06/08 02:27:22;;;;;;;12.25;6.63;;;15.60;99.90;;;14.95;100.00;101029.31;5002752;28;20034;-79
2023/06/08 02:29:48;;;;;;;12.35;5.82;;;15.50;99.90;;;14.91;100.00;101022.63;5000875;28;20027;-78
2023/06/08 02:32:14;;;;;;;17.33;6.47;;;15.50;99.90;;;14.95;100.00;101026.56;4999550;28;20394;-79
2023/06/08 02:34:40;;;;;;;13.75;5.80;;;15.40;99.90;;;14.92;100.00;101021.56;4992631;28;20188;-78
2023/06/08 02:37:06;;;;;;;15.43;7.13;;;15.40;99.90;;;14.90;100.00;101021.78;4996426;28;20038;-79
2023/06/08 02:39:32;;;;;;;10.60;5.82;;;15.40;99.90;;;14.84;100.00;101019.13;5008894;28;20161;-78
2023/06/08 02:41:58;;;;;;;17.17;6.88;;;15.40;99.90;;;14.74;100.00;101020.56;4995569;28;20034;-78
2023/06/08 02:44:24;;;;;;;12.68;6.20;;;15.30;99.90;;;14.67;100.00;101023.38;4998817;28;20378;-79
2023/06/08 02:46:50;;;;;;;12.75;5.72;;;15.20;99.90;;;14.59;100.00;101011.91;4996974;28;20029;-77
2023/06/08 02:49:16;;;;;;;13.18;6.70;;;15.20;99.90;;;14.53;100.00;101013.69;5001091;28;20088;-81
2023/06/08 02:51:42;;;;;;;15.63;6.35;;;15.10;99.90;;;14.51;100.00;101016.66;4995224;28;20390;-78
2023/06/08 02:54:07;;;;;;;15.35;6.00;;;15.10;99.90;;;14.47;100.00;101015.44;5004596;28;20058;-78
2023/06/08 02:56:33;;;;;;;16.48;6.82;;;15.00;99.90;;;14.38;100.00;101016.88;5002883;28;20385;-79
2023/06/08 02:59:02;;;;;;;13.80;6.78;;;15.00;99.90;;;14.31;100.00;101013.34;5001578;28;20029;-79
2023/06/08 03:01:30;;;;;;;15.75;6.88;;;14.90;99.90;;;14.19;100.00;101016.03;5003972;28;20140;-79
2023/06/08 03:04:06;;;;;;;15.57;7.60;;;14.80;99.90;;;14.21;100.00;101016.69;5000790;28;20030;-78
2023/06/08 03:06:38;;;;;;;17.23;7.10;;;14.70;99.90;;;14.22;100.00;101002.72;5007192;28;20106;-79
2023/06/08 03:09:08;;;;;;;13.70;6.85;;;14.80;99.90;;;14.29;100.00;101015.50;5007794;28;20517;-79
2023/06/08 03:11:37;;;;;;;13.93;6.85;;;14.80;99.90;;;14.07;100.00;101010.53;5003997;28;20042;-79
2023/06/08 03:14:05;;;;;;;12.20;6.82;;;14.80;99.90;;;14.18;100.00;101014.38;5016473;28;20508;-79
2023/06/08 03:16:31;;;;;;;12.48;7.45;;;14.70;99.90;;;14.13;100.00;101025.22;5000383;28;20100;-79
2023/06/08 03:18:58;;;;;;;20.25;7.07;;;14.60;99.90;;;14.14;100.00;101021.41;5004994;28;20030;-78
2023/06/08 03:21:28;;;;;;;16.98;7.38;;;14.60;99.90;;;14.09;100.00;101019.38;5017330;28;20042;-78
2023/06/08 03:23:55;;;;;;;19.15;7.93;;;14.60;99.90;;;13.97;100.00;101021.19;5006449;28;20034;-78
2023/06/08 03:26:22;;;;;;;14.57;7.63;;;14.50;99.90;;;13.90;100.00;101013.03;4979554;28;20088;-78
2023/06/08 03:28:48;;;;;;;14.80;8.18;;;14.50;99.90;;;14.01;100.00;101028.75;4991197;28;20359;-82
2023/06/08 03:31:14;;;;;;;20.73;7.88;;;14.50;99.90;;;13.94;100.00;101017.03;4996297;28;20046;-78
2023/06/08 03:33:45;;;;;;;18.73;8.27;;;14.50;99.90;;;13.81;100.00;101018.03;4999196;28;20065;-78
2023/06/08 03:36:12;;;;;;;15.90;8.32;;;14.40;99.90;;;13.87;100.00;101028.06;5004392;28;20030;-78
2023/06/08 03:38:42;;;;;;;16.08;7.72;;;14.30;99.90;;;13.89;100.00;101031.44;4997115;28;20395;-77
2023/06/08 03:41:13;;;;;;;18.35;7.65;;;14.30;99.90;;;13.74;100.00;101029.06;4996542;28;20035;-77
2023/06/08 03:43:38;;;;;;;18.45;8.57;;;14.30;99.90;;;13.71;100.00;101042.38;4992466;28;20026;-77
2023/06/08 03:46:05;;;;;;;19.63;8.20;;;14.20;99.90;;;13.79;100.00;101042.94;5003475;28;20099;-77
2023/06/08 03:48:31;;;;;;;20.13;8.05;;;14.30;99.90;;;13.66;100.00;101032.94;5015020;28;20042;-78
2023/06/08 03:50:58;;;;;;;18.90;8.35;;;14.20;99.90;;;13.69;100.00;101044.53;5010199;28;20026;-78
2023/06/08 03:53:25;;;;;;;18.77;7.82;;;14.20;99.90;;;13.60;100.00;101041.25;5003321;28;20038;-78
2023/06/08 03:55:51;;;;;;;21.45;9.10;;;14.10;99.90;;;13.63;100.00;101046.25;5017350;28;20050;-78
2023/06/08 03:58:16;;;;;;;15.48;8.35;;;14.10;99.90;;;13.59;100.00;101054.13;4996106;28;20044;-78
2023/06/08 04:00:44;;;;;;;21.38;8.70;;;14.10;99.90;;;13.50;100.00;101056.31;5003586;28;20034;-78
2023/06/08 04:03:12;;;;;;;18.88;8.40;;;14.10;99.90;;;13.54;100.00;101055.88;5000654;28;20395;-79
2023/06/08 04:05:38;;;;;;;20.90;8.70;;;14.10;99.90;;;13.33;100.00;101050.56;5000578;28;20043;-78
2023/06/08 04:08:04;;;;;;;20.58;8.68;;;14.00;99.90;;;13.35;100.00;101036.63;4994363;28;20478;-77
2023/06/08 04:10:31;;;;;;;18.33;9.57;;;14.00;99.90;;;13.28;100.00;101028.47;5014266;28;20053;-78
2023/06/08 04:12:57;;;;;;;18.88;8.52;;;14.00;99.90;;;13.36;100.00;101041.03;4999045;28;20026;-78
2023/06/08 04:15:22;;;;;;;24.60;9.82;;;14.00;99.90;;;13.36;100.00;101047.34;5003951;28;20050;-78
2023/06/08 04:17:49;;;;;;;18.00;9.43;;;13.90;99.90;;;13.24;100.00;101035.44;4994450;28;20394;-78
2023/06/08 04:20:18;;;;;;;19.08;8.95;;;13.90;99.90;;;13.31;100.00;101035.38;5010181;28;20081;-77
2023/06/08 04:22:44;;;;;;;20.98;10.57;;;13.90;99.90;;;13.29;100.00;101041.13;5000782;28;20412;-77
2023/06/08 04:25:12;;;;;;;20.88;10.07;;;13.90;99.90;;;13.24;100.00;101043.66;5004585;28;20525;-78
2023/06/08 04:27:38;;;;;;;19.77;9.93;;;13.80;99.90;;;13.30;100.00;101039.19;4998773;28;20042;-77
2023/06/08 04:30:05;;;;;;;20.65;10.00;;;13.90;99.90;;;13.27;100.00;101036.91;5001942;28;20397;-77
2023/06/08 04:32:32;;;;;;;;;;;13.80;99.90;;;13.47;100.00;101048.56;5015437;28;20036;-77
2023/06/08 04:35:00;;;;;;;23.05;10.20;;;13.90;99.90;;;13.56;100.00;101057.31;5025068;28;20457;-77
2023/06/08 04:37:26;;;;;;;20.30;10.38;;;13.90;99.90;;;13.62;100.00;101053.66;5011103;28;20038;-77
2023/06/08 04:39:53;;;;;;;24.00;10.80;;;14.00;99.90;;;13.67;100.00;101047.50;5015832;28;20390;-78
2023/06/08 04:42:24;;;;;;;28.75;10.23;;;14.00;99.90;;;13.70;100.00;101060.75;5000414;28;20057;-77
2023/06/08 04:44:50;;;;;;;17.27;10.50;;;14.10;99.90;;;13.81;100.00;101059.16;5000012;28;20030;-76
2023/06/08 04:47:16;;;;;;;20.40;10.32;;;14.10;99.90;;;13.88;100.00;101053.59;4998284;28;20026;-76
2023/06/08 04:49:42;;;;;;;22.55;9.43;;;14.10;99.90;;;13.82;100.00;101052.63;5011277;28;20025;-78
2023/06/08 04:52:09;;;;;;;25.00;10.40;;;14.20;99.90;;;13.87;100.00;101063.72;5004281;28;20497;-77
2023/06/08 04:54:36;;;;;;;23.33;10.38;;;14.30;99.90;;;13.92;100.00;101063.88;5016424;28;20172;-76
2023/06/08 04:57:03;;;;;;;20.85;9.90;;;14.30;99.90;;;14.01;100.00;101069.03;5014035;28;20045;-77
2023/06/08 04:59:29;;;;;;;21.20;9.98;;;14.40;99.90;;;13.98;100.00;101053.91;5001215;28;20057;-78
2023/06/08 05:01:55;;;;;;;22.13;10.35;;;14.50;99.90;;;14.01;100.00;101060.81;4994248;28;20042;-77
2023/06/08 05:04:21;;;;;;;21.33;10.57;;;14.50;99.90;;;13.95;100.00;101059.84;4994719;28;20100;-77
2023/06/08 05:06:48;;;;;;;26.13;10.70;;;14.50;99.90;;;13.87;100.00;101044.53;4996095;28;20480;-76
2023/06/08 05:09:13;;;;;;;21.13;10.38;;;14.50;99.90;;;13.95;100.00;101040.66;4995673;28;20038;-77
2023/06/08 05:11:40;;;;;;;20.27;10.27;;;14.50;99.90;;;14.13;100.00;101059.00;5002687;28;20081;-78
2023/06/08 05:14:08;;;;;;;20.92;9.85;;;14.60;99.90;;;14.15;100.00;101054.09;5006950;28;20046;-78
2023/06/08 05:16:35;;;;;;;22.75;10.60;;;14.60;99.90;;;13.90;100.00;101055.03;5005830;28;20042;-76
2023/06/08 05:19:01;;;;;;;24.30;10.70;;;14.60;99.90;;;13.91;100.00;101059.47;5010212;28;20524;-80
2023/06/08 05:21:27;;;;;;;22.58;10.73;;;14.50;99.90;;;14.01;100.00;101058.06;5003353;28;20106;-77
2023/06/08 05:23:53;;;;;;;21.73;10.88;;;14.50;99.90;;;14.12;100.00;101054.56;4995252;28;20072;-77
2023/06/08 05:26:23;;;;;;;24.30;10.85;;;14.60;99.90;;;13.94;100.00;101039.78;5010460;28;20050;-78
2023/06/08 05:28:50;;;;;;;23.27;10.70;;;14.60;99.90;;;13.93;100.00;101043.59;5007046;28;20058;-79
2023/06/08 05:31:16;;;;;;;29.48;12.00;;;14.50;99.90;;;13.93;100.00;101043.59;5014976;28;20093;-78
2023/06/08 05:33:41;;;;;;;25.88;11.00;;;14.50;99.90;;;13.86;100.00;101034.63;5016064;28;20370;-82
2023/06/08 05:36:07;;;;;;;25.13;11.43;;;14.50;99.90;;;14.17;100.00;101049.22;5002120;28;20391;-79
2023/06/08 05:38:33;;;;;;;24.20;10.48;;;14.60;99.90;;;14.28;100.00;101039.38;5002200;28;20101;-78
2023/06/08 05:40:59;;;;;;;27.33;11.13;;;14.70;99.90;;;14.26;100.00;101047.00;5010505;28;20046;-79
2023/06/08 05:43:25;;;;;;;26.35;11.35;;;14.80;99.90;;;14.44;100.00;101037.03;4995529;28;20042;-78
2023/06/08 05:45:50;;;;;;;32.05;10.77;;;14.90;99.90;;;14.57;100.00;101041.50;5004940;28;20034;-78
2023/06/08 05:48:16;;;;;;;35.83;12.25;;;15.00;99.90;;;14.49;100.00;101046.25;5006878;28;20044;-78
2023/06/08 05:50:42;;;;;;;33.78;12.55;;;15.00;99.90;;;14.36;100.00;101038.22;5003086;28;20034;-77
2023/06/08 05:53:08;;;;;;;34.55;11.98;;;15.00;99.90;;;14.55;100.00;101038.13;5000805;28;22218;-77
2023/06/08 05:55:33;;;;;;;31.50;10.93;;;15.10;99.90;;;14.58;100.00;101038.53;5010305;28;20034;-77
2023/06/08 05:57:59;;;;;;;31.35;11.55;;;15.20;99.90;;;14.55;100.00;101043.63;4994953;28;20038;-77
2023/06/08 06:00:26;;;;;;;29.38;11.80;;;15.20;99.90;;;14.60;100.00;101035.56;5013188;28;20056;-78
2023/06/08 06:02:52;;;;;;;40.80;13.48;;;15.20;99.90;;;14.73;100.00;101035.38;4995243;28;20129;-77
2023/06/08 06:05:18;;;;;;;33.50;11.98;;;15.30;99.90;;;14.72;100.00;101043.81;5001846;28;20050;-77
2023/06/08 06:07:44;;;;;;;30.08;12.02;;;15.30;99.90;;;14.38;100.00;101045.13;5000149;28;20082;-78
2023/06/08 06:10:10;;;;;;;30.85;11.68;;;15.20;99.90;;;14.74;100.00;101048.03;4994325;28;20183;-77
2023/06/08 06:12:36;;;;;;;24.95;12.30;;;15.30;99.90;;;14.82;100.00;101050.41;5001448;28;20034;-76
2023/06/08 06:15:02;;;;;;;36.65;12.30;;;15.40;99.90;;;14.97;100.00;101051.91;5010143;28;20044;-77
2023/06/08 06:17:28;;;;;;;27.92;12.00;;;15.50;99.90;;;14.92;100.00;101049.84;5011906;28;20069;-77
2023/06/08 06:19:53;;;;;;;30.23;11.80;;;15.60;99.90;;;15.01;100.00;101055.00;4997984;28;20042;-77
2023/06/08 06:22:21;;;;;;;31.50;12.50;;;15.60;99.90;;;15.03;100.00;101050.13;5019376;28;20030;-78
2023/06/08 06:24:46;;;;;;;27.25;12.35;;;15.60;99.90;;;15.14;100.00;101052.03;5003524;28;20129;-76
2023/06/08 06:27:12;;;;;;;27.02;12.05;;;15.80;99.90;;;15.19;100.00;101046.66;5003950;28;20988;-77
2023/06/08 06:29:38;;;;;;;26.45;11.05;;;15.70;99.90;;;15.52;100.00;101056.22;5003038;28;20033;-77
2023/06/08 06:32:06;;;;;;;26.88;11.70;;;16.00;99.90;;;15.63;100.00;101054.53;5004458;28;20068;-77
2023/06/08 06:34:32;;;;;;;32.35;11.63;;;16.10;99.90;;;15.65;100.00;101057.91;4998495;28;20512;-77
2023/06/08 06:36:58;;;;;;;28.67;11.80;;;16.20;99.90;;;15.57;100.00;101054.66;4994103;28;20030;-77
2023/06/08 06:39:23;;;;;;;28.75;12.27;;;16.20;99.90;;;15.41;100.00;101053.50;4999559;28;20061;-76
2023/06/08 06:41:49;;;;;;;25.45;11.70;;;16.10;99.90;;;15.62;100.00;101063.03;5000592;28;20033;-76
2023/06/08 06:44:19;;;;;;;23.15;10.90;;;16.10;99.90;;;15.64;100.00;101055.38;5012136;28;20060;-77
2023/06/08 06:46:45;;;;;;;25.10;11.80;;;16.20;99.90;;;15.95;100.00;101056.91;4998964;28;20030;-77
2023/06/08 06:49:10;;;;;;;24.02;11.45;;;16.40;99.90;;;16.16;100.00;101053.72;5008404;28;20398;-77
2023/06/08 06:51:37;;;;;;;27.88;11.50;;;16.70;99.90;;;15.96;100.00;101063.25;5009258;28;20506;-76
2023/06/08 06:54:03;;;;;;;26.98;11.73;;;16.70;99.90;;;16.17;100.00;101064.47;4993546;28;20030;-77
2023/06/08 06:56:28;;;;;;;27.40;11.88;;;16.80;99.90;;;15.92;100.00;101062.91;4993741;28;20042;-77
2023/06/08 06:58:55;;;;;;;22.98;10.98;;;16.70;99.90;;;16.28;100.00;101060.03;4993923;28;20034;-77
2023/06/08 07:01:23;;;;;;;23.42;11.88;;;16.90;99.90;;;16.18;100.00;101057.94;4993671;28;20098;-76
2023/06/08 07:03:51;;;;;;;30.10;11.68;;;16.90;99.90;;;16.44;100.00;101063.09;4997338;28;20609;-77
2023/06/08 07:06:18;;;;;;;23.52;10.88;;;;;;;17.03;100.00;101061.94;5002777;28;20070;-78
2023/06/08 07:08:45;;;;;;;25.88;13.13;;;;;;;17.01;100.00;101055.84;4999153;28;20035;-78
2023/06/08 07:11:11;;;;;;;26.38;11.65;;;;;;;17.31;100.00;101055.50;5000270;28;20371;-77
2023/06/08 07:13:37;;;;;;;28.23;11.90;;;;;;;17.56;100.00;101054.22;5007421;28;20413;-76
2023/06/08 07:16:04;;;;;;;18.00;10.48;;;;;;;17.21;100.00;101056.19;4994437;28;20042;-76
2023/06/08 07:18:31;;;;;;;22.13;11.68;;;;;;;17.32;100.00;101059.09;5010785;28;20065;-77
2023/06/08 07:20:56;;;;;;;25.33;11.73;;;17.10;99.90;;;17.66;100.00;101054.34;5024804;28;20038;-78
2023/06/08 07:23:22;;;;;;;23.65;11.80;;;18.10;99.90;;;17.61;100.00;101057.03;5015410;28;20046;-78
2023/06/08 07:25:48;;;;;;;23.90;11.52;;;;;;;17.92;100.00;101062.97;5017166;28;20038;-77
2023/06/08 07:28:16;;;;;;;24.92;11.45;;;;;;;18.39;100.00;101050.56;5014599;28;20041;-78
2023/06/08 07:30:42;;;;;;;25.65;11.45;;;;;;;18.94;96.47;101041.41;5018814;28;20065;-77
2023/06/08 07:33:08;;;;;;;25.23;12.02;;;18.20;99.90;;;18.27;100.00;101038.84;5000883;28;20034;-78
2023/06/08 07:35:34;;;;;;;24.40;11.63;;;19.20;99.90;;;18.97;98.30;101046.41;4987766;28;20042;-78
2023/06/08 07:38:00;;;;;;;24.88;11.88;;;;;;;19.00;95.23;101045.09;4999799;28;20125;-77
2023/06/08 07:40:27;;;;;;;27.10;11.15;;;19.40;99.90;;;19.33;93.52;101052.25;5008042;28;20049;-78
2023/06/08 07:42:53;;;;;;;26.27;11.43;;;19.80;99.90;;;18.98;93.91;101045.34;4999416;28;20046;-78
2023/06/08 07:45:19;;;;;;;19.15;10.68;;;19.80;99.90;;;18.99;96.65;101052.53;4993248;28;20061;-77
2023/06/08 07:47:45;;;;;;;22.17;11.63;;;19.70;99.90;;;18.93;96.88;101053.56;4992327;28;20042;-78
2023/06/08 07:50:11;;;;;;;22.38;10.90;;;19.60;99.90;;;19.15;96.04;101056.25;4996943;28;20030;-78
2023/06/08 07:52:38;;;;;;;22.13;11.75;;;;;;;19.05;95.91;101057.00;4999164;28;20494;-76
2023/06/08 07:55:07;;;;;;;24.30;11.40;;;19.70;99.90;;;19.30;98.99;101058.31;4994062;28;20096;-77
2023/06/08 07:57:36;;;;;;;23.08;10.93;;;19.80;99.90;;;19.65;94.93;101065.19;5001346;28;20041;-78
2023/06/08 08:00:04;;;;;;;21.77;11.25;;;19.90;99.90;;;19.91;90.62;101051.50;5008915;28;20489;-77
2023/06/08 08:02:38;;;;;;;21.50;10.85;;;;;;;19.71;89.54;101059.69;4993248;28;20467;-77
2023/06/08 08:05:05;;;;;;;17.75;10.50;;;;;;;19.84;93.20;101056.41;4995847;28;20026;-76
2023/06/08 08:07:31;;;;;;;19.80;10.18;;;20.10;99.90;;;20.05;90.37;101053.75;5004967;28;20046;-78
2023/06/08 08:09:57;;;;;;;19.50;10.88;;;;;;;20.22;85.16;101053.53;5008574;28;20043;-78
2023/06/08 08:12:26;;;;;;;19.42;10.43;;;;;;;20.24;84.37;101052.19;5007948;28;20065;-78
2023/06/08 08:14:52;;;;;;;17.13;10.60;;;;;;;20.59;82.17;101040.59;5001410;28;20042;-77
2023/06/08 08:17:18;;;;;;;20.80;9.85;;;;;;;20.80;81.43;101044.25;5007845;28;20516;-80
2023/06/08 08:19:44;;;;;;;18.92;9.38;;;;;;;21.12;77.89;101046.75;5003077;28;20043;-80
2023/06/08 08:22:10;;;;;;;18.10;9.35;;;;;;;21.16;79.75;101048.97;5004089;28;20041;-79
2023/06/08 08:24:36;;;;;;;16.95;8.82;;;;;;;21.55;79.88;101048.34;5010617;28;20121;-80
2023/06/08 08:27:03;;;;;;;20.77;10.15;;;;;;;20.85;79.05;101041.50;4999289;28;20084;-80
2023/06/08 08:29:29;;;;;;;21.67;10.27;;;;;;;21.05;79.62;101050.91;4999362;28;20038;-79
2023/06/08 08:31:55;;;;;;;22.67;10.57;;;;;;;20.96;79.78;101039.56;4999522;28;20064;-79
2023/06/08 08:34:21;;;;;;;23.55;10.48;;;;;;;20.50;82.04;101035.63;5007471;28;20045;-79
2023/06/08 08:36:47;;;;;;;19.42;10.02;;;;;;;20.73;81.58;101041.75;4992691;28;20100;-79
2023/06/08 08:39:14;;;;;;;23.42;10.85;;;;;;;20.36;82.87;101043.63;4993359;28;20062;-76
2023/06/08 08:41:41;;;;;;;19.08;9.73;;;;;;;20.65;82.89;101039.50;5004532;28;20057;-79
2023/06/08 08:44:17;;;;;;;22.23;10.60;;;;;;;20.35;84.25;101047.50;5000197;28;20035;-77
2023/06/08 08:46:45;;;;;;;20.58;9.82;;;;;;;20.45;85.80;101046.69;4997754;28;20043;-79
2023/06/08 08:49:15;;;;;;;18.65;9.68;;;;;;;20.68;83.93;101039.78;5012294;28;20040;-77
2023/06/08 08:51:49;;;;;;;22.45;9.75;;;;;;;20.88;84.54;101037.31;5013757;28;20500;-77
2023/06/08 08:54:16;;;;;;;22.15;9.45;;;;;;;20.72;85.05;101033.69;5007510;28;20066;-77
2023/06/08 08:56:42;;;;;;;24.15;9.27;;;;;;;20.34;87.63;101040.28;5011323;28;20125;-79
2023/06/08 08:59:09;;;;;;;27.98;10.25;;;;;;;20.23;90.14;101031.13;5009417;28;20095;-75
2023/06/08 09:01:40;;;;;;;25.38;9.80;;;;;;;20.63;88.14;101031.47;5009804;28;20044;-78
2023/06/08 09:04:07;;;;;;;28.83;10.00;;;;;;;21.02;83.90;101030.13;5009764;28;20038;-78
2023/06/08 09:06:33;;;;;;;31.10;10.60;;;;;;;20.89;82.65;101039.00;5008876;28;20069;-77
2023/06/08 09:08:59;;;;;;;28.83;10.15;;;;;;;21.22;82.54;101036.78;5011051;28;20353;-77
2023/06/08 09:11:25;;;;;;;21.88;9.25;;;20.20;99.90;;;21.89;80.63;101039.38;5002165;28;20031;-77
2023/06/08 09:14:08;;;;;;;19.38;9.40;;;;;;;22.57;76.10;101048.22;5005765;28;20077;-77
2023/06/08 09:16:43;;;;;;;23.27;9.30;;;;;;;22.29;71.66;101035.88;4993984;28;20226;-77
2023/06/08 09:19:10;;;;;;;19.15;9.18;;;;;;;22.67;70.40;101038.97;5012691;28;20045;-80
2023/06/08 09:21:36;;;;;;;17.37;8.80;;;;;;;22.86;69.91;101038.28;5022730;28;20049;-80
2023/06/08 09:24:05;;;;;;;14.90;8.25;;;;;;;22.99;69.25;101044.00;5011296;28;20071;-75
2023/06/08 09:26:32;;;;;;;14.98;8.75;;;;;;;22.58;67.91;101041.53;5012295;28;20041;-78
2023/06/08 09:29:03;;;;;;;20.42;8.85;;;;;;;22.82;67.29;101041.66;5008906;28;20481;-79
2023/06/08 09:31:30;;;;;;;17.98;9.43;;;;;;;22.88;66.18;101041.59;5001088;28;20046;-80
2023/06/08 09:34:10;;;;;;;17.85;9.63;;;;;;;23.18;67.17;101032.13;5008499;28;20057;-78
2023/06/08 09:36:38;;;;;;;17.20;8.90;;;;;;;22.79;67.06;101033.84;5006101;28;20046;-81
2023/06/08 09:39:05;;;;;;;;;;;;;;;22.66;68.12;101026.19;5008322;28;20121;-78
2023/06/08 09:41:32;;;;;;;16.83;8.98;;;;;;;22.40;69.13;101034.69;4995166;28;19972;-78
2023/06/08 09:43:59;;;;;;;18.95;8.85;;;;;;;22.68;69.50;101027.56;5000016;28;20042;-81
2023/06/08 09:46:41;;;;;;;14.38;8.70;;;;;;;23.11;67.18;101029.72;5001404;28;20073;-81
2023/06/08 09:49:07;;;;;;;18.45;8.93;;;;;;;23.46;67.18;101035.22;5000858;28;20389;-80
2023/06/08 09:51:36;;;;;;;14.07;9.23;;;;;;;23.34;66.22;101021.72;4993420;28;20057;-79
2023/06/08 09:54:04;;;;;;;14.27;9.23;;;;;;;23.18;65.23;101021.00;4995071;28;20856;-81
2023/06/08 09:56:30;;;;;;;20.00;9.35;;;;;;;23.47;66.64;101034.09;4993592;28;20121;-79
2023/06/08 09:58:58;;;;;;;14.75;9.18;;;;;;;23.52;64.02;101025.72;5004023;28;20378;-79
2023/06/08 10:01:54;;;;;;;18.15;9.40;;;;;;;22.83;64.67;101028.56;4997806;28;20070;-78
2023/06/08 10:04:28;;;;;;;15.50;9.32;;;;;;;23.35;63.10;101023.38;4991870;28;20100;-79
2023/06/08 10:06:56;;;;;;;19.52;9.68;;;;;;;23.48;64.43;101030.22;5010088;28;20032;-79
2023/06/08 10:09:27;;;;;;;16.50;9.68;;;;;;;23.33;65.33;101031.19;5009575;28;20038;-76
2023/06/08 10:11:56;;;;;;;19.00;9.70;;;;;;;23.12;66.19;101030.53;5008263;28;20209;-75
2023/06/08 10:14:26;;;;;;;14.65;8.95;;;;;;;23.05;70.36;101041.16;5003693;28;20034;-79
2023/06/08 10:16:54;;;;;;;16.02;9.02;;;;;;;23.22;65.26;101032.38;4997494;28;20096;-77
2023/06/08 10:19:22;;;;;;;14.75;9.50;;;;;;;23.29;65.41;101026.50;5007956;28;20030;-77
2023/06/08 10:21:53;;;;;;;18.90;9.77;;;;;;;23.67;64.23;101033.06;4999713;28;20026;-77